createdAt,value
2023-04-15T00:01:08.072Z,20.00
2023-04-15T00:03:35.682Z,20.00
2023-04-15T00:06:02.574Z,20.00
2023-04-15T00:08:30.100Z,19.90
2023-04-15T00:10:56.787Z,19.90
2023-04-15T00:13:23.605Z,19.90
2023-04-15T00:15:50.209Z,20.00
2023-04-15T00:18:16.901Z,20.00
2023-04-15T00:20:43.589Z,20.10
2023-04-15T00:23:10.224Z,20.00
2023-04-15T00:25:36.867Z,20.00
2023-04-15T00:28:03.913Z,20.10
2023-04-15T00:30:31.314Z,20.00
2023-04-15T00:32:57.980Z,20.10
2023-04-15T00:35:24.637Z,20.20
2023-04-15T00:37:51.523Z,20.20
2023-04-15T00:40:20.808Z,20.20
2023-04-15T00:42:47.582Z,20.20
2023-04-15T00:45:14.282Z,20.20
2023-04-15T00:47:43.232Z,20.20
2023-04-15T00:50:11.024Z,20.30
2023-04-15T00:52:37.694Z,20.20
2023-04-15T00:55:05.412Z,20.10
2023-04-15T00:57:33.026Z,20.20
2023-04-15T01:00:01.072Z,20.20
2023-04-15T01:02:28.105Z,20.20
2023-04-15T01:04:56.248Z,20.20
2023-04-15T01:07:22.888Z,20.30
2023-04-15T01:09:49.678Z,20.20
2023-04-15T01:12:17.052Z,20.30
2023-04-15T01:14:43.837Z,20.20
2023-04-15T01:17:10.489Z,20.20
2023-04-15T01:19:37.922Z,20.20
2023-04-15T01:22:05.612Z,20.10
2023-04-15T01:24:33.954Z,20.30
2023-04-15T01:27:00.573Z,20.20
2023-04-15T01:29:27.933Z,20.20
2023-04-15T01:31:56.214Z,20.20
2023-04-15T01:34:23.361Z,20.10
2023-04-15T01:36:50.040Z,20.10
2023-04-15T01:39:16.881Z,20.00
2023-04-15T01:41:43.870Z,20.00
2023-04-15T01:44:10.969Z,19.90
2023-04-15T01:46:38.115Z,19.90
2023-04-15T01:49:04.843Z,19.90
2023-04-15T01:51:32.017Z,19.90
2023-04-15T01:53:58.672Z,19.90
2023-04-15T01:56:25.350Z,19.90
2023-04-15T01:58:52.506Z,19.80
2023-04-15T02:01:22.281Z,19.80
2023-04-15T02:03:49.098Z,19.70
2023-04-15T02:06:15.956Z,19.70
2023-04-15T02:08:42.573Z,19.70
2023-04-15T02:11:09.358Z,19.80
2023-04-15T02:13:36.258Z,19.60
2023-04-15T02:16:03.577Z,19.60
2023-04-15T02:18:30.542Z,19.70
2023-04-15T02:20:58.550Z,19.60
2023-04-15T02:23:25.585Z,19.70
2023-04-15T02:25:53.479Z,19.60
2023-04-15T02:28:21.977Z,19.60
2023-04-15T02:30:52.519Z,19.60
2023-04-15T02:33:19.778Z,19.60
2023-04-15T02:35:46.502Z,19.60
2023-04-15T02:38:14.233Z,19.60
2023-04-15T02:40:40.948Z,19.60
2023-04-15T02:43:07.725Z,19.50
2023-04-15T02:45:34.599Z,19.60
2023-04-15T02:48:06.107Z,19.50
2023-04-15T02:50:33.308Z,19.60
2023-04-15T02:53:01.545Z,19.50
2023-04-15T02:55:29.080Z,19.50
2023-04-15T02:57:56.192Z,19.40
2023-04-15T03:00:25.177Z,19.50
2023-04-15T03:02:56.350Z,19.40
2023-04-15T03:05:26.358Z,19.40
2023-04-15T03:07:53.082Z,19.40
2023-04-15T03:10:20.168Z,19.40
2023-04-15T03:12:47.010Z,19.40
2023-04-15T03:15:13.880Z,19.20
2023-04-15T03:17:40.674Z,19.40
2023-04-15T03:20:07.880Z,19.40
2023-04-15T03:22:34.574Z,19.30
2023-04-15T03:25:01.680Z,19.40
2023-04-15T03:27:28.327Z,19.30
2023-04-15T03:29:54.978Z,19.40
2023-04-15T03:32:21.679Z,19.30
2023-04-15T03:34:48.320Z,19.30
2023-04-15T03:37:15.019Z,19.50
2023-04-15T03:39:41.754Z,19.30
2023-04-15T03:42:08.454Z,19.40
2023-04-15T03:44:35.084Z,19.30
2023-04-15T03:47:02.063Z,19.20
2023-04-15T03:49:28.745Z,19.30
2023-04-15T03:51:55.776Z,19.30
2023-04-15T03:54:22.708Z,19.10
2023-04-15T03:56:49.346Z,19.20
2023-04-15T03:59:16.001Z,19.20
2023-04-15T04:01:43.237Z,19.20
2023-04-15T04:04:09.956Z,19.20
2023-04-15T04:06:36.744Z,19.10
2023-04-15T04:09:03.609Z,19.30
2023-04-15T04:11:30.652Z,19.20
2023-04-15T04:13:57.289Z,19.20
2023-04-15T04:16:24.060Z,19.10
2023-04-15T04:18:50.889Z,19.10
2023-04-15T04:21:17.625Z,19.20
2023-04-15T04:23:44.290Z,19.10
2023-04-15T04:26:10.932Z,19.10
2023-04-15T04:28:39.477Z,19.10
2023-04-15T04:31:07.396Z,19.10
2023-04-15T04:33:34.193Z,19.20
2023-04-15T04:36:00.854Z,19.30
2023-04-15T04:38:27.462Z,19.10
2023-04-15T04:40:54.149Z,19.20
2023-04-15T04:43:20.811Z,19.10
2023-04-15T04:45:47.490Z,19.00
2023-04-15T04:48:14.182Z,19.00
2023-04-15T04:50:41.047Z,19.00
2023-04-15T04:53:07.683Z,19.20
2023-04-15T04:55:36.856Z,19.00
2023-04-15T04:58:03.531Z,19.00
2023-04-15T05:00:30.351Z,19.10
2023-04-15T05:02:57.210Z,19.10
2023-04-15T05:05:23.918Z,19.10
2023-04-15T05:07:50.835Z,19.10
2023-04-15T05:10:18.272Z,19.30
2023-04-15T05:12:45.049Z,19.10
2023-04-15T05:15:12.163Z,19.20
2023-04-15T05:17:38.997Z,19.00
2023-04-15T05:20:06.337Z,19.10
2023-04-15T05:22:33.159Z,19.00
2023-04-15T05:24:59.811Z,19.10
2023-04-15T05:27:26.586Z,19.10
2023-04-15T05:29:53.294Z,19.10
2023-04-15T05:32:20.000Z,19.10
2023-04-15T05:34:47.037Z,19.10
2023-04-15T05:37:13.851Z,19.10
2023-04-15T05:39:40.495Z,19.10
2023-04-15T05:42:07.562Z,19.00
2023-04-15T05:44:34.272Z,19.30
2023-04-15T05:47:00.959Z,19.00
2023-04-15T05:49:27.580Z,19.00
2023-04-15T05:51:54.295Z,19.00
2023-04-15T05:54:23.128Z,19.10
2023-04-15T05:56:49.771Z,19.10
2023-04-15T05:59:16.708Z,19.10
2023-04-15T06:01:43.802Z,19.10
2023-04-15T06:04:11.451Z,19.10
2023-04-15T06:06:38.642Z,19.10
2023-04-15T06:09:05.287Z,19.10
2023-04-15T06:11:32.198Z,19.10
2023-04-15T06:13:58.810Z,19.10
2023-04-15T06:16:25.654Z,19.10
2023-04-15T06:18:52.344Z,19.20
2023-04-15T06:21:19.304Z,19.10
2023-04-15T06:23:46.233Z,19.00
2023-04-15T06:26:12.858Z,19.20
2023-04-15T06:28:40.681Z,19.10
2023-04-15T06:31:07.389Z,19.30
2023-04-15T06:33:34.082Z,19.10
2023-04-15T06:36:00.833Z,19.10
2023-04-15T06:38:27.522Z,19.00
2023-04-15T06:40:54.248Z,19.10
2023-04-15T06:43:20.899Z,19.10
2023-04-15T06:45:47.637Z,19.10
2023-04-15T06:48:14.361Z,19.00
2023-04-15T06:50:41.291Z,19.10
2023-04-15T06:53:07.975Z,19.10
2023-04-15T06:55:34.657Z,19.20
2023-04-15T06:58:01.388Z,19.30
2023-04-15T07:00:28.968Z,19.20
2023-04-15T07:02:55.916Z,19.10
2023-04-15T07:05:25.352Z,19.10
2023-04-15T07:07:53.138Z,19.20
2023-04-15T07:10:20.356Z,19.20
2023-04-15T07:12:48.556Z,19.10
2023-04-15T07:15:15.237Z,19.30
2023-04-15T07:17:43.198Z,19.20
2023-04-15T07:20:10.805Z,19.20
2023-04-15T07:22:37.432Z,19.20
2023-04-15T07:25:04.420Z,19.10
2023-04-15T07:27:31.175Z,19.10
2023-04-15T07:29:57.836Z,19.20
2023-04-15T07:32:24.544Z,19.10
2023-04-15T07:34:51.733Z,19.10
2023-04-15T07:37:18.879Z,19.10
2023-04-15T07:39:45.543Z,19.20
2023-04-15T07:42:12.243Z,19.00
2023-04-15T07:44:38.842Z,19.10
2023-04-15T07:47:05.999Z,19.20
2023-04-15T07:49:32.625Z,18.90
2023-04-15T07:52:00.074Z,19.00
2023-04-15T07:54:27.363Z,19.00
2023-04-15T07:56:54.248Z,19.00
2023-04-15T07:59:21.544Z,19.00
2023-04-15T08:01:48.966Z,19.10
2023-04-15T08:04:16.017Z,19.10
2023-04-15T08:06:42.786Z,19.10
2023-04-15T08:09:09.395Z,19.10
2023-04-15T08:11:36.558Z,19.10
2023-04-15T08:14:03.259Z,19.30
2023-04-15T08:16:30.099Z,19.00
2023-04-15T08:18:57.640Z,19.10
2023-04-15T08:21:25.100Z,19.00
2023-04-15T08:23:53.032Z,19.00
2023-04-15T08:26:21.379Z,19.00
2023-04-15T08:28:48.879Z,18.90
2023-04-15T08:31:16.920Z,19.10
2023-04-15T08:33:43.717Z,19.00
2023-04-15T08:36:10.424Z,19.00
2023-04-15T08:38:37.593Z,19.00
2023-04-15T08:41:10.097Z,19.20
2023-04-15T08:43:51.754Z,19.10
2023-04-15T08:46:19.437Z,19.10
2023-04-15T08:48:48.357Z,19.10
2023-04-15T08:51:16.345Z,19.20
2023-04-15T08:53:47.349Z,19.10
2023-04-15T08:56:16.783Z,19.10
2023-04-15T08:58:47.656Z,19.10
2023-04-15T09:01:14.372Z,19.10
2023-04-15T09:03:42.078Z,19.00
2023-04-15T09:06:08.942Z,19.10
2023-04-15T09:08:35.852Z,19.00
2023-04-15T09:11:03.609Z,19.10
2023-04-15T09:13:30.837Z,19.00
2023-04-15T09:15:58.451Z,19.00
2023-04-15T09:18:32.315Z,19.00
2023-04-15T09:21:08.767Z,19.10
2023-04-15T09:23:36.226Z,19.20
2023-04-15T09:26:03.669Z,19.20
2023-04-15T09:28:30.859Z,19.10
2023-04-15T09:31:01.709Z,19.10
2023-04-15T09:33:30.008Z,19.20
2023-04-15T09:36:02.454Z,19.20
2023-04-15T09:38:29.434Z,19.20
2023-04-15T09:40:57.100Z,19.10
2023-04-15T09:43:36.800Z,19.20
2023-04-15T09:46:03.466Z,19.20
2023-04-15T09:48:31.164Z,19.30
2023-04-15T09:50:58.956Z,19.40
2023-04-15T09:53:26.400Z,19.20
2023-04-15T09:55:55.507Z,19.30
2023-04-15T09:58:27.417Z,19.10
2023-04-15T10:00:56.502Z,19.00
2023-04-15T10:03:24.363Z,19.20
2023-04-15T10:05:52.803Z,19.20
2023-04-15T10:08:21.738Z,19.20
2023-04-15T10:10:49.262Z,19.30
2023-04-15T10:13:22.328Z,19.40
2023-04-15T10:16:09.676Z,19.40
2023-04-15T10:18:41.040Z,19.30
2023-04-15T10:21:09.126Z,19.30
2023-04-15T10:23:35.977Z,19.30
2023-04-15T10:26:04.569Z,19.30
2023-04-15T10:28:31.563Z,19.40
2023-04-15T10:30:59.662Z,19.20
2023-04-15T10:33:27.036Z,19.30
2023-04-15T10:35:55.521Z,19.30
2023-04-15T10:38:43.275Z,19.50
2023-04-15T10:41:20.848Z,19.30
2023-04-15T10:44:02.149Z,19.20
2023-04-15T10:46:43.868Z,19.40
2023-04-15T10:49:12.377Z,19.30
2023-04-15T10:51:44.034Z,19.30
2023-04-15T10:54:15.000Z,19.30
2023-04-15T10:56:43.754Z,19.20
2023-04-15T10:59:10.443Z,19.20
2023-04-15T11:02:00.571Z,19.20
2023-04-15T11:04:57.550Z,19.20
2023-04-15T11:07:38.260Z,19.20
2023-04-15T11:10:14.022Z,19.30
2023-04-15T11:12:41.814Z,19.10
2023-04-15T11:15:29.863Z,19.20
2023-04-15T11:17:57.816Z,19.20
2023-04-15T11:20:25.359Z,19.20
2023-04-15T11:22:53.653Z,19.20
2023-04-15T11:25:40.395Z,19.20
2023-04-15T11:28:07.600Z,19.20
2023-04-15T11:30:36.903Z,19.20
2023-04-15T11:33:09.281Z,19.20
2023-04-15T11:35:36.616Z,19.20
2023-04-15T11:38:05.312Z,19.20
2023-04-15T11:40:33.485Z,19.20
2023-04-15T11:43:14.682Z,19.10
2023-04-15T11:45:53.496Z,19.20
2023-04-15T11:48:23.232Z,19.10
2023-04-15T11:50:54.950Z,19.10
2023-04-15T11:53:22.044Z,19.10
2023-04-15T11:55:50.833Z,19.10
2023-04-15T11:58:23.755Z,19.10
2023-04-15T12:00:57.072Z,19.10
2023-04-15T12:03:23.921Z,19.20
2023-04-15T12:06:17.015Z,19.20
2023-04-15T12:09:00.449Z,19.20
2023-04-15T12:11:27.113Z,19.30
2023-04-15T12:13:56.774Z,19.20
2023-04-15T12:16:24.660Z,19.20
2023-04-15T12:18:58.938Z,19.20
2023-04-15T12:21:27.431Z,19.10
2023-04-15T12:23:55.907Z,19.20
2023-04-15T12:26:32.706Z,19.20
2023-04-15T12:29:07.390Z,19.10
2023-04-15T12:31:46.342Z,19.10
2023-04-15T12:34:15.402Z,19.00
2023-04-15T12:36:52.165Z,19.10
2023-04-15T12:39:21.773Z,19.10
2023-04-15T12:41:48.400Z,19.10
2023-04-15T12:44:15.121Z,19.10
2023-04-15T12:46:41.932Z,19.30
2023-04-15T12:49:09.291Z,18.90
2023-04-15T12:51:36.048Z,19.20
2023-04-15T12:54:02.873Z,19.10
2023-04-15T12:56:29.880Z,19.10
2023-04-15T12:58:56.556Z,19.30
2023-04-15T13:01:23.264Z,19.10
2023-04-15T13:03:51.102Z,19.10
2023-04-15T13:06:17.993Z,19.10
2023-04-15T13:08:57.364Z,19.20
2023-04-15T13:11:25.926Z,19.10
2023-04-15T13:13:52.938Z,19.20
2023-04-15T13:16:19.753Z,19.20
2023-04-15T13:18:46.977Z,19.20
2023-04-15T13:21:13.616Z,19.50
2023-04-15T13:23:42.276Z,19.20
2023-04-15T13:26:08.924Z,19.20
2023-04-15T13:28:36.288Z,19.20
2023-04-15T13:31:03.137Z,19.40
2023-04-15T13:33:30.228Z,19.20
2023-04-15T13:35:57.018Z,19.20
2023-04-15T13:38:25.192Z,19.20
2023-04-15T13:40:52.150Z,19.20
2023-04-15T13:43:18.766Z,19.20
2023-04-15T13:45:46.833Z,19.20
2023-04-15T13:48:13.692Z,19.20
2023-04-15T13:50:45.077Z,19.20
2023-04-15T13:53:12.588Z,19.30
2023-04-15T13:55:42.750Z,19.20
2023-04-15T13:58:10.232Z,19.20
2023-04-15T14:00:36.919Z,19.30
2023-04-15T14:03:04.474Z,19.10
2023-04-15T14:05:31.957Z,19.00
2023-04-15T14:07:59.909Z,19.10
2023-04-15T14:10:26.580Z,19.20
2023-04-15T14:12:53.252Z,19.20
2023-04-15T14:15:19.957Z,19.40
2023-04-15T14:17:46.711Z,19.20
2023-04-15T14:20:15.508Z,19.20
2023-04-15T14:22:43.521Z,19.20
2023-04-15T14:25:13.181Z,19.20
2023-04-15T14:27:44.299Z,19.20
2023-04-15T14:30:11.338Z,19.40
2023-04-15T14:32:38.002Z,19.20
2023-04-15T14:35:04.947Z,19.20
2023-04-15T14:37:32.232Z,19.20
2023-04-15T14:39:58.851Z,19.10
2023-04-15T14:42:25.655Z,19.10
2023-04-15T14:44:52.294Z,19.20
2023-04-15T14:47:18.989Z,19.30
2023-04-15T14:49:45.731Z,19.30
2023-04-15T14:52:12.872Z,19.20
2023-04-15T14:54:39.513Z,19.20
2023-04-15T14:57:06.196Z,19.20
2023-04-15T14:59:32.899Z,19.20
2023-04-15T15:01:59.920Z,19.00
2023-04-15T15:04:26.816Z,19.20
2023-04-15T15:06:53.526Z,19.10
2023-04-15T15:09:22.096Z,19.20
2023-04-15T15:11:48.714Z,19.40
2023-04-15T15:14:15.476Z,19.20
2023-04-15T15:16:42.481Z,19.20
2023-04-15T15:19:09.118Z,19.20
2023-04-15T15:21:35.926Z,19.20
2023-04-15T15:24:02.556Z,19.30
2023-04-15T15:26:29.734Z,19.30
2023-04-15T15:28:56.390Z,19.20
2023-04-15T15:31:23.062Z,19.20
2023-04-15T15:33:49.939Z,19.40
2023-04-15T15:36:16.565Z,19.20
2023-04-15T15:38:43.202Z,19.50
2023-04-15T15:41:09.825Z,19.20
2023-04-15T15:43:36.878Z,19.20
2023-04-15T15:46:03.743Z,19.20
2023-04-15T15:48:30.474Z,19.30
2023-04-15T15:50:57.197Z,19.20
2023-04-15T15:53:25.724Z,19.30
2023-04-15T15:55:53.860Z,19.30
2023-04-15T15:58:21.087Z,19.30
2023-04-15T16:00:47.828Z,19.30
2023-04-15T16:03:15.580Z,19.30
2023-04-15T16:05:42.638Z,19.30
2023-04-15T16:08:09.366Z,19.40
2023-04-15T16:10:36.006Z,19.30
2023-04-15T16:13:02.926Z,19.50
2023-04-15T16:15:29.679Z,19.20
2023-04-15T16:17:56.526Z,19.20
2023-04-15T16:20:23.465Z,19.40
2023-04-15T16:22:50.538Z,19.20
2023-04-15T16:25:17.359Z,19.30
2023-04-15T16:27:58.716Z,19.20
2023-04-15T16:30:30.275Z,19.30
2023-04-15T16:32:57.657Z,19.20
2023-04-15T16:35:24.348Z,19.30
2023-04-15T16:37:51.168Z,19.30
2023-04-15T16:40:18.058Z,19.20
2023-04-15T16:42:44.863Z,19.30
2023-04-15T16:45:11.782Z,19.30
2023-04-15T16:47:38.433Z,19.40
2023-04-15T16:50:05.549Z,19.30
2023-04-15T16:52:32.876Z,19.30
2023-04-15T16:54:59.986Z,19.20
2023-04-15T16:57:27.187Z,19.40
2023-04-15T17:00:08.730Z,19.20
2023-04-15T17:02:35.789Z,19.20
2023-04-15T17:05:03.236Z,19.30
2023-04-15T17:07:30.077Z,19.30
2023-04-15T17:09:56.689Z,19.20
2023-04-15T17:12:23.414Z,19.40
2023-04-15T17:14:50.067Z,19.20
2023-04-15T17:17:16.978Z,19.30
2023-04-15T17:19:43.626Z,19.30
2023-04-15T17:22:12.984Z,19.30
2023-04-15T17:24:39.639Z,19.20
2023-04-15T17:27:06.732Z,19.30
2023-04-15T17:29:33.417Z,19.10
2023-04-15T17:32:00.896Z,19.40
2023-04-15T17:34:28.530Z,19.20
2023-04-15T17:37:16.908Z,19.20
2023-04-15T17:39:44.162Z,19.20
2023-04-15T17:42:11.515Z,19.20
2023-04-15T17:44:38.219Z,19.20
2023-04-15T17:47:04.988Z,19.20
2023-04-15T17:49:33.971Z,19.20
2023-04-15T17:52:01.013Z,19.30
2023-04-15T17:54:27.790Z,19.20
2023-04-15T17:56:54.519Z,19.30
2023-04-15T17:59:21.159Z,19.30
2023-04-15T18:01:47.859Z,19.20
2023-04-15T18:04:14.758Z,19.20
2023-04-15T18:06:41.686Z,19.20
2023-04-15T18:09:09.051Z,19.20
2023-04-15T18:11:36.097Z,19.20
2023-04-15T18:14:03.301Z,19.30
2023-04-15T18:16:30.327Z,19.30
2023-04-15T18:18:57.108Z,19.30
2023-04-15T18:21:23.735Z,19.30
2023-04-15T18:23:50.429Z,19.30
2023-04-15T18:26:17.204Z,19.30
2023-04-15T18:28:43.928Z,19.30
2023-04-15T18:31:10.810Z,19.30
2023-04-15T18:33:37.501Z,19.40
2023-04-15T18:36:04.280Z,19.40
2023-04-15T18:38:31.679Z,19.20
2023-04-15T18:40:58.766Z,19.30
2023-04-15T18:43:25.450Z,19.30
2023-04-15T18:45:52.905Z,19.30
2023-04-15T18:48:19.598Z,19.30
2023-04-15T18:50:46.362Z,19.30
2023-04-15T18:53:13.008Z,19.40
2023-04-15T18:55:40.682Z,19.30
2023-04-15T18:58:09.191Z,19.30
2023-04-15T19:00:38.919Z,19.30
2023-04-15T19:03:06.424Z,19.20
2023-04-15T19:05:33.634Z,19.30
2023-04-15T19:08:00.468Z,19.30
2023-04-15T19:10:28.091Z,19.30
2023-04-15T19:12:55.360Z,19.20
2023-04-15T19:15:22.211Z,19.20
2023-04-15T19:17:48.926Z,19.20
2023-04-15T19:20:15.839Z,19.20
2023-04-15T19:22:43.237Z,19.20
2023-04-15T19:25:10.238Z,19.50
2023-04-15T19:27:38.388Z,19.20
2023-04-15T19:30:06.919Z,19.20
2023-04-15T19:32:34.275Z,19.20
2023-04-15T19:35:00.932Z,19.30
2023-04-15T19:37:27.671Z,19.20
2023-04-15T19:39:54.538Z,19.30
2023-04-15T19:42:21.367Z,19.10
2023-04-15T19:44:48.097Z,19.20
2023-04-15T19:47:14.829Z,19.20
2023-04-15T19:49:41.879Z,19.20
2023-04-15T19:52:08.666Z,19.20
2023-04-15T19:54:35.328Z,19.20
2023-04-15T19:57:02.391Z,19.20
2023-04-15T19:59:29.115Z,19.20
2023-04-15T20:01:55.979Z,19.10
2023-04-15T20:04:22.950Z,19.00
2023-04-15T20:06:50.281Z,19.20
2023-04-15T20:09:17.145Z,19.10
2023-04-15T20:12:46.743Z,19.20
2023-04-15T20:14:30.399Z,19.20
2023-04-15T20:16:57.197Z,19.20
2023-04-15T20:19:23.847Z,19.20
2023-04-15T20:21:52.524Z,19.20
2023-04-15T20:24:21.309Z,19.20
2023-04-15T20:26:48.010Z,19.20
2023-04-15T20:29:14.713Z,19.20
2023-04-15T20:31:41.395Z,19.20
2023-04-15T20:34:10.032Z,19.20
2023-04-15T20:36:38.588Z,19.10
2023-04-15T20:39:05.552Z,19.30
2023-04-15T20:41:32.429Z,19.20
2023-04-15T20:43:59.093Z,19.20
2023-04-15T20:46:27.371Z,19.20
2023-04-15T20:48:54.720Z,19.10
2023-04-15T20:51:21.396Z,19.10
2023-04-15T20:53:48.168Z,19.10
2023-04-15T20:56:14.821Z,19.10
2023-04-15T20:58:41.480Z,19.20
2023-04-15T21:01:08.177Z,19.20
2023-04-15T21:03:34.994Z,19.20
2023-04-15T21:06:01.764Z,19.20
2023-04-15T21:08:31.500Z,19.20
2023-04-15T21:10:58.157Z,19.20
2023-04-15T21:13:24.928Z,19.20
2023-04-15T21:15:53.869Z,19.20
2023-04-15T21:18:21.524Z,19.20
2023-04-15T21:20:56.599Z,19.20
2023-04-15T21:23:23.424Z,19.10
2023-04-15T21:25:50.215Z,19.10
2023-04-15T21:28:16.879Z,19.10
2023-04-15T21:30:43.525Z,18.90
2023-04-15T21:33:10.170Z,19.20
2023-04-15T21:35:36.849Z,19.10
2023-04-15T21:38:03.475Z,19.10
2023-04-15T21:40:30.401Z,19.10
2023-04-15T21:42:57.068Z,19.10
2023-04-15T21:45:23.684Z,19.20
2023-04-15T21:47:59.984Z,19.10
2023-04-15T21:50:36.043Z,19.10
2023-04-15T21:53:03.640Z,19.10
2023-04-15T21:55:30.321Z,19.10
2023-04-15T21:57:56.951Z,19.20
2023-04-15T22:00:24.171Z,19.10
2023-04-15T22:02:51.383Z,19.10
2023-04-15T22:05:18.368Z,19.20
2023-04-15T22:07:45.018Z,19.20
2023-04-15T22:10:11.770Z,19.20
2023-04-15T22:12:41.755Z,19.00
2023-04-15T22:15:08.966Z,19.10
2023-04-15T22:17:35.672Z,19.10
2023-04-15T22:20:03.056Z,19.30
2023-04-15T22:22:43.320Z,19.30
2023-04-15T22:25:11.683Z,19.10
2023-04-15T22:27:38.369Z,19.10
2023-04-15T22:30:05.614Z,19.10
2023-04-15T22:32:32.456Z,19.10
2023-04-15T22:34:59.168Z,19.10
2023-04-15T22:37:26.085Z,19.10
2023-04-15T22:39:52.772Z,19.10
2023-04-15T22:42:19.433Z,19.00
2023-04-15T22:44:46.052Z,19.10
2023-04-15T22:47:12.688Z,19.10
2023-04-15T22:49:39.486Z,19.10
2023-04-15T22:52:07.889Z,19.10
2023-04-15T22:54:34.624Z,19.10
2023-04-15T22:57:02.042Z,19.10
2023-04-15T22:59:28.824Z,19.10
2023-04-15T23:01:56.169Z,19.10
2023-04-15T23:04:26.822Z,19.00
2023-04-15T23:06:54.363Z,19.10
2023-04-15T23:09:21.400Z,19.30
2023-04-15T23:11:48.079Z,19.00
2023-04-15T23:14:14.767Z,19.10
2023-04-15T23:16:41.461Z,19.10
2023-04-15T23:19:08.396Z,19.00
2023-04-15T23:21:35.477Z,19.00
2023-04-15T23:24:02.119Z,19.00
2023-04-15T23:26:28.792Z,19.00
2023-04-15T23:28:56.035Z,19.10
2023-04-15T23:31:22.698Z,19.10
2023-04-15T23:33:49.403Z,19.00
2023-04-15T23:36:16.180Z,19.10
2023-04-15T23:38:42.827Z,19.30
2023-04-15T23:41:11.774Z,19.20
2023-04-15T23:43:38.447Z,19.00
2023-04-15T23:46:05.236Z,19.10
2023-04-15T23:48:31.925Z,19.00
2023-04-15T23:50:58.834Z,19.20
2023-04-15T23:53:25.611Z,19.00
2023-04-15T23:55:52.220Z,19.00
2023-04-15T23:58:18.901Z,19.00
